Duke Field AFS, FL

9:06 AM CST on February 12, 2016 (GMT -0600)
Sandy Ridge | | Change Station
CLOSE
Current Station
Personal Weather Station
Location: Crestview, FL
Elevation: 157 ft
Nearby Weather Stations

Elev 157 ft 30.71 °N, 86.58 °W | Updated 9 seconds ago

Partly Cloudy
Partly Cloudy
64.2 °F
Feels Like 64.2 °F
N
2.0
Wind Variable Wind from East
Gusts 10.0 mph

Today
High -- | Low -- °F
--% Chance of Precip.
Yesterday
High -- | Low -- °F
Precip. -- in
Pressure 30.21 in
Visibility 10.0 miles
Clouds Few 1200 ft
Dew Point 58 °F
Humidity 79%
Rainfall 0.00 in
Snow Depth Not available.
6:29 AM 5:31 PM
Waxing Crescent, 21% visible
METAR KCEW 121453Z AUTO 24009KT 10SM FEW012 17/13 A3022 RMK AO2 SLP230 T01670128 51004
Pressure 30.21 in
Visibility 10.0 miles
Clouds Few 1200 ft
Dew Point 58 °F
Humidity 79%
Rainfall 0.00 in
Snow Depth Not available.
6:29 AM 5:31 PM
Waxing Crescent, 21% visible
METAR KCEW 121453Z AUTO 24009KT 10SM FEW012 17/13 A3022 RMK AO2 SLP230 T01670128 51004

10-Day Weather Forecast

Almanac

Astronomy

Feb. 12, 2016 Rise Set
Actual Time
Civil Twilight
Nautical Twilight
Astronomical Twilight
Moon
Length of Visible Light
Length of Day
Tomorrow will be .
, % of the Moon is Illuminated

Today's Extremes

State Highs State Lows

Community

WunderPhotos

Upload Photos

1,892,323 photos uploaded!

WunderBlog® & News

Nearby

Air Quality

  Air Quality AQ Index Pollutant
Not available.

Snow Depth

Station Depth Elevation

Earthquake Activity

City Distance Mag. Time & Date
Minimum magnitude displayed is 2.5.

Coastal Water Temperatures

Place Temperature

Stations

Nearby Weather Stations

Station Location Temp. Windchill Dew Point Humidity Wind Precip. Elev Updated Type
                   

Watches & Warnings

There are currently no watches in effect.